createdAt,value
2019-05-19T00:02:56.400Z,10.60
2019-05-19T00:08:04.834Z,10.60
2019-05-19T00:13:14.002Z,10.60
2019-05-19T00:18:39.459Z,10.60
2019-05-19T00:23:47.038Z,10.60
2019-05-19T00:28:55.698Z,10.60
2019-05-19T00:34:04.798Z,10.60
2019-05-19T00:39:13.584Z,10.50
2019-05-19T00:44:25.762Z,10.60
2019-05-19T00:49:41.363Z,10.50
2019-05-19T00:54:45.349Z,10.40
2019-05-19T00:59:55.218Z,10.30
2019-05-19T01:05:04.134Z,10.20
2019-05-19T01:10:16.647Z,10.10
2019-05-19T01:15:26.121Z,10.00
2019-05-19T01:20:35.382Z,9.90
2019-05-19T01:25:57.825Z,9.80
2019-05-19T01:31:06.771Z,9.80
2019-05-19T01:36:17.224Z,9.80
2019-05-19T01:41:25.146Z,9.80
2019-05-19T01:46:38.489Z,9.80
2019-05-19T01:51:47.311Z,9.70
2019-05-19T01:56:55.291Z,9.70
2019-05-19T02:02:05.909Z,9.60
2019-05-19T02:07:15.040Z,9.60
2019-05-19T02:12:23.310Z,9.50
2019-05-19T02:17:31.972Z,9.50
2019-05-19T02:22:39.558Z,9.40
2019-05-19T02:27:50.887Z,9.50
2019-05-19T02:33:00.347Z,9.50
2019-05-19T02:38:08.529Z,9.50
2019-05-19T02:43:21.052Z,9.50
2019-05-19T02:48:32.206Z,9.40
2019-05-19T02:53:41.157Z,9.40
2019-05-19T02:59:05.826Z,9.40
2019-05-19T03:04:31.365Z,9.30
2019-05-19T03:09:40.222Z,9.40
2019-05-19T03:14:50.074Z,9.40
2019-05-19T03:20:17.756Z,9.40
2019-05-19T03:25:25.982Z,9.40
2019-05-19T03:30:53.741Z,9.40
2019-05-19T03:36:02.097Z,9.30
2019-05-19T03:41:11.261Z,9.30
2019-05-19T03:46:38.626Z,9.30
2019-05-19T03:51:48.214Z,9.20
2019-05-19T03:56:58.339Z,9.20
2019-05-19T04:02:08.960Z,9.20
2019-05-19T04:07:19.482Z,9.20
2019-05-19T04:12:27.124Z,9.30
2019-05-19T04:17:35.229Z,9.40
2019-05-19T04:22:43.959Z,9.50
2019-05-19T04:27:51.497Z,9.70
2019-05-19T04:33:00.613Z,10.00
2019-05-19T04:38:13.450Z,10.20
2019-05-19T04:43:23.841Z,10.30
2019-05-19T04:48:31.760Z,10.40
2019-05-19T04:53:40.969Z,10.70
2019-05-19T04:58:48.598Z,11.00
2019-05-19T05:03:59.799Z,11.30
2019-05-19T05:09:08.940Z,11.60
2019-05-19T05:14:19.620Z,12.00
2019-05-19T05:19:29.080Z,12.40
2019-05-19T05:24:40.275Z,12.80
2019-05-19T05:29:51.074Z,13.20
2019-05-19T05:35:00.585Z,13.70
2019-05-19T05:40:09.394Z,14.00
2019-05-19T05:45:47.933Z,14.30
2019-05-19T05:51:14.487Z,14.50
2019-05-19T05:56:26.937Z,14.80
2019-05-19T06:01:52.351Z,15.00
2019-05-19T06:07:01.600Z,15.10
2019-05-19T06:12:10.025Z,15.30
2019-05-19T06:17:18.999Z,15.60
2019-05-19T06:22:56.017Z,15.60
2019-05-19T06:27:53.555Z,15.80
2019-05-19T06:33:02.592Z,15.70
2019-05-19T06:38:10.847Z,15.90
2019-05-19T06:43:20.485Z,16.10
2019-05-19T06:48:28.384Z,16.40
2019-05-19T06:53:37.241Z,16.50
2019-05-19T06:58:48.530Z,16.80
2019-05-19T07:04:06.600Z,16.80
2019-05-19T07:09:18.037Z,17.20
2019-05-19T07:14:30.425Z,17.40
2019-05-19T07:19:39.918Z,17.50
2019-05-19T07:24:49.041Z,17.60
2019-05-19T07:29:59.363Z,17.60
2019-05-19T07:35:24.627Z,17.70
2019-05-19T07:40:49.773Z,18.00
2019-05-19T07:46:15.133Z,18.10
2019-05-19T07:51:41.181Z,18.10
2019-05-19T07:57:01.269Z,18.20
2019-05-19T08:02:09.515Z,18.50
2019-05-19T08:07:19.385Z,18.90
2019-05-19T08:12:45.887Z,19.20
2019-05-19T08:18:11.752Z,19.30
2019-05-19T08:23:37.939Z,19.50
2019-05-19T08:29:03.317Z,19.90
2019-05-19T08:34:31.260Z,20.00
2019-05-19T08:39:57.062Z,20.40
2019-05-19T08:45:22.701Z,20.70
2019-05-19T08:50:48.262Z,21.00
2019-05-19T08:56:09.289Z,20.80
2019-05-19T09:01:21.147Z,21.10
2019-05-19T09:06:46.781Z,21.30
2019-05-19T09:11:56.388Z,21.40
2019-05-19T09:17:05.537Z,21.60
2019-05-19T09:22:31.530Z,22.00
2019-05-19T09:27:57.298Z,22.10
2019-05-19T09:33:25.902Z,22.30
2019-05-19T09:38:51.434Z,22.20
2019-05-19T09:44:05.122Z,22.30
2019-05-19T09:49:35.288Z,22.70
2019-05-19T09:55:03.656Z,22.50
2019-05-19T10:00:20.057Z,22.30
2019-05-19T10:05:45.563Z,22.40
2019-05-19T10:11:13.160Z,22.20
2019-05-19T10:16:38.748Z,22.40
2019-05-19T10:22:08.402Z,22.40
2019-05-19T10:27:21.596Z,22.80
2019-05-19T10:32:30.998Z,22.60
2019-05-19T10:37:58.211Z,22.50
2019-05-19T10:43:08.291Z,22.90
2019-05-19T10:48:33.562Z,22.80
2019-05-19T10:54:14.451Z,23.40
2019-05-19T10:59:37.668Z,23.80
2019-05-19T11:04:47.715Z,23.70
2019-05-19T11:09:57.762Z,23.60
2019-05-19T11:15:09.675Z,23.70
2019-05-19T11:20:20.142Z,23.50
2019-05-19T11:25:33.827Z,23.90
2019-05-19T11:30:44.996Z,23.80
2019-05-19T11:36:08.265Z,23.90
2019-05-19T11:41:19.996Z,24.20
2019-05-19T11:46:45.928Z,23.90
2019-05-19T11:51:54.618Z,24.00
2019-05-19T11:57:08.811Z,23.80
2019-05-19T12:02:21.602Z,23.40
2019-05-19T12:07:31.080Z,23.50
2019-05-19T12:12:51.739Z,23.40
2019-05-19T12:18:01.778Z,23.60
2019-05-19T12:23:12.667Z,23.70
2019-05-19T12:28:24.555Z,23.40
2019-05-19T12:33:33.621Z,23.30
2019-05-19T12:39:00.455Z,23.10
2019-05-19T12:44:10.328Z,23.40
2019-05-19T12:49:25.844Z,23.50
2019-05-19T12:54:53.118Z,23.60
2019-05-19T13:00:15.763Z,23.10
2019-05-19T13:05:33.737Z,23.40
2019-05-19T13:11:03.441Z,23.40
2019-05-19T13:16:11.316Z,23.20
2019-05-19T13:21:28.013Z,23.30
2019-05-19T13:26:56.886Z,23.10
2019-05-19T13:32:07.498Z,22.90
2019-05-19T13:37:40.281Z,22.90
2019-05-19T13:42:49.743Z,22.70
2019-05-19T13:48:00.791Z,22.70
2019-05-19T13:53:23.483Z,22.70
2019-05-19T13:58:30.997Z,23.00
2019-05-19T14:03:39.236Z,23.30
2019-05-19T14:08:48.098Z,23.40
2019-05-19T14:13:57.207Z,23.30
2019-05-19T14:19:08.861Z,23.50
2019-05-19T14:24:23.277Z,23.60
2019-05-19T14:29:31.586Z,23.80
2019-05-19T14:34:42.609Z,24.20
2019-05-19T14:39:54.098Z,24.30
2019-05-19T14:45:07.210Z,24.30
2019-05-19T14:50:21.615Z,24.00
2019-05-19T14:55:31.342Z,24.00
2019-05-19T15:00:38.879Z,24.00
2019-05-19T15:05:49.012Z,24.20
2019-05-19T15:10:59.697Z,24.20
2019-05-19T15:16:06.925Z,24.50
2019-05-19T15:21:16.579Z,24.30
2019-05-19T15:26:24.682Z,24.40
2019-05-19T15:31:32.227Z,24.10
2019-05-19T15:36:51.293Z,24.10
2019-05-19T15:41:59.410Z,24.20
2019-05-19T15:47:11.053Z,24.20
2019-05-19T15:52:21.496Z,24.40
2019-05-19T15:57:30.022Z,24.70
2019-05-19T16:02:50.286Z,24.50
2019-05-19T16:08:01.144Z,24.50
2019-05-19T16:13:28.716Z,24.60
2019-05-19T16:18:55.494Z,24.70
2019-05-19T16:24:07.039Z,24.40
2019-05-19T16:29:20.008Z,24.20
2019-05-19T16:34:28.145Z,24.20
2019-05-19T16:39:47.831Z,24.10
2019-05-19T16:45:15.318Z,24.20
2019-05-19T16:50:25.012Z,24.10
2019-05-19T16:55:34.631Z,23.90
2019-05-19T17:01:01.487Z,23.70
2019-05-19T17:06:31.561Z,23.80
2019-05-19T17:11:43.168Z,23.70
2019-05-19T17:16:56.005Z,23.30
2019-05-19T17:22:08.706Z,23.30
2019-05-19T17:27:34.995Z,22.90
2019-05-19T17:32:47.419Z,22.70
2019-05-19T17:38:15.028Z,22.40
2019-05-19T17:43:41.261Z,22.30
2019-05-19T17:49:09.863Z,22.10
2019-05-19T17:54:20.491Z,21.90
2019-05-19T17:59:29.285Z,21.50
2019-05-19T18:04:40.450Z,21.20
2019-05-19T18:09:49.298Z,20.90
2019-05-19T18:14:59.931Z,20.70
2019-05-19T18:20:22.696Z,20.40
2019-05-19T18:25:19.485Z,20.10
2019-05-19T18:30:31.412Z,19.80
2019-05-19T18:35:40.475Z,19.50
2019-05-19T18:41:08.883Z,19.10
2019-05-19T18:46:35.989Z,18.80
2019-05-19T18:52:11.554Z,18.50
2019-05-19T18:57:27.526Z,18.30
2019-05-19T19:02:38.177Z,18.00
2019-05-19T19:07:49.488Z,17.80
2019-05-19T19:13:00.320Z,17.50
2019-05-19T19:18:09.597Z,17.30
2019-05-19T19:23:20.007Z,17.00
2019-05-19T19:28:30.867Z,16.70
2019-05-19T19:33:40.141Z,16.50
2019-05-19T19:39:07.677Z,16.20
2019-05-19T19:44:22.011Z,16.00
2019-05-19T19:49:32.546Z,15.80
2019-05-19T19:54:44.193Z,15.50
2019-05-19T19:59:52.422Z,15.30
2019-05-19T20:05:08.787Z,15.10
2019-05-19T20:10:18.589Z,14.90
2019-05-19T20:15:29.340Z,14.70
2019-05-19T20:20:38.377Z,14.50
2019-05-19T20:25:48.312Z,14.30
2019-05-19T20:30:58.402Z,14.20
2019-05-19T20:36:09.244Z,14.00
2019-05-19T20:41:19.610Z,13.90
2019-05-19T20:46:30.014Z,13.80
2019-05-19T20:51:39.877Z,13.70
2019-05-19T20:56:54.950Z,13.50
2019-05-19T21:02:06.129Z,13.40
2019-05-19T21:07:16.952Z,13.30
2019-05-19T21:12:43.443Z,13.20
2019-05-19T21:18:01.844Z,13.00
2019-05-19T21:23:11.797Z,12.90
2019-05-19T21:28:23.141Z,12.90
2019-05-19T21:33:35.396Z,12.80
2019-05-19T21:38:44.871Z,12.70
2019-05-19T21:43:56.563Z,12.60
2019-05-19T21:49:05.776Z,12.50
2019-05-19T21:54:15.161Z,12.40
2019-05-19T21:59:27.890Z,12.30
2019-05-19T22:04:53.649Z,12.20
2019-05-19T22:10:02.363Z,12.20
2019-05-19T22:15:18.944Z,12.00
2019-05-19T22:20:44.670Z,12.00
2019-05-19T22:26:11.334Z,11.90
2019-05-19T22:31:36.665Z,11.80
2019-05-19T22:36:54.937Z,11.80
2019-05-19T22:42:20.782Z,11.70
2019-05-19T23:09:03.030Z,11.00
2019-05-19T23:14:13.120Z,10.90
2019-05-19T23:19:23.316Z,10.90
2019-05-19T23:24:51.528Z,10.90
2019-05-19T23:30:18.792Z,10.90
2019-05-19T23:35:34.905Z,11.00
2019-05-19T23:41:02.337Z,11.00
2019-05-19T23:46:30.646Z,11.10
2019-05-19T23:51:56.021Z,11.20
2019-05-19T23:57:22.724Z,11.30
